createdAt,value
2018-11-27T00:00:31.915Z,6.83
2018-11-27T00:03:01.646Z,8.73
2018-11-27T00:05:30.817Z,7.15
2018-11-27T00:07:59.130Z,8.45
2018-11-27T00:10:28.551Z,6.25
2018-11-27T00:12:56.830Z,6.40
2018-11-27T00:15:32.218Z,8.30
2018-11-27T00:18:00.526Z,7.22
2018-11-27T00:20:29.437Z,5.87
2018-11-27T00:22:58.584Z,5.90
2018-11-27T00:25:28.394Z,6.20
2018-11-27T00:27:56.962Z,7.80
2018-11-27T00:30:32.023Z,6.53
2018-11-27T00:33:01.270Z,6.37
2018-11-27T00:35:30.302Z,6.92
2018-11-27T00:37:59.054Z,6.08
2018-11-27T00:40:28.779Z,6.22
2018-11-27T00:42:58.031Z,5.67
2018-11-27T00:45:32.092Z,6.72
2018-11-27T00:48:01.111Z,9.70
2018-11-27T00:50:29.555Z,6.47
2018-11-27T00:52:58.638Z,8.23
2018-11-27T00:55:27.235Z,7.37
2018-11-27T00:57:57.120Z,6.28
2018-11-27T01:00:30.740Z,5.50
2018-11-27T01:03:00.284Z,6.55
2018-11-27T01:05:30.255Z,6.08
2018-11-27T01:07:58.662Z,6.12
2018-11-27T01:10:26.711Z,6.55
2018-11-27T01:12:55.519Z,5.95
2018-11-27T01:15:29.511Z,6.80
2018-11-27T01:17:57.923Z,6.95
2018-11-27T01:20:27.696Z,6.05
2018-11-27T01:22:56.312Z,6.28
2018-11-27T01:25:25.377Z,6.97
2018-11-27T01:27:53.756Z,7.47
2018-11-27T01:30:22.462Z,6.80
2018-11-27T01:32:50.838Z,7.00
2018-11-27T01:35:20.215Z,8.45
2018-11-27T01:37:49.419Z,6.70
2018-11-27T01:40:19.381Z,7.97
2018-11-27T01:42:53.317Z,6.58
2018-11-27T01:45:23.076Z,5.00
2018-11-27T01:47:51.260Z,5.37
2018-11-27T01:50:20.310Z,7.50
2018-11-27T01:52:48.767Z,6.47
2018-11-27T01:55:18.796Z,5.72
2018-11-27T01:57:47.448Z,4.78
2018-11-27T02:03:00.755Z,5.37
2018-11-27T02:05:28.792Z,4.60
2018-11-27T02:07:57.437Z,5.58
2018-11-27T02:10:27.454Z,8.90
2018-11-27T02:13:00.933Z,6.45
2018-11-27T02:15:32.505Z,8.25
2018-11-27T02:18:00.650Z,6.70
2018-11-27T02:20:28.829Z,7.00
2018-11-27T02:22:58.062Z,7.22
2018-11-27T02:25:28.482Z,6.20
2018-11-27T02:27:56.598Z,7.08
2018-11-27T02:30:27.419Z,10.43
2018-11-27T02:32:55.586Z,9.10
2018-11-27T02:35:24.374Z,10.05
2018-11-27T02:37:54.131Z,11.12
2018-11-27T02:40:23.130Z,7.97
2018-11-27T02:42:51.684Z,10.98
2018-11-27T02:45:21.350Z,10.20
2018-11-27T02:47:52.009Z,9.78
2018-11-27T02:50:20.983Z,8.95
2018-11-27T02:52:49.729Z,10.32
2018-11-27T02:55:18.887Z,10.03
2018-11-27T02:57:47.863Z,9.78
2018-11-27T03:00:17.436Z,10.60
2018-11-27T03:02:45.758Z,8.88
2018-11-27T03:05:22.459Z,10.43
2018-11-27T03:07:51.006Z,9.75
2018-11-27T03:10:20.023Z,9.08
2018-11-27T03:12:48.865Z,9.43
2018-11-27T03:15:17.394Z,11.45
2018-11-27T03:17:45.845Z,10.00
2018-11-27T03:20:14.853Z,8.80
2018-11-27T03:22:43.666Z,9.40
2018-11-27T03:25:12.540Z,8.63
2018-11-27T03:27:41.068Z,7.80
2018-11-27T03:30:14.046Z,10.98
2018-11-27T03:32:42.749Z,11.08
2018-11-27T03:35:12.063Z,9.40
2018-11-27T03:37:40.343Z,10.38
2018-11-27T03:40:17.795Z,11.50
2018-11-27T03:42:46.098Z,9.08
2018-11-27T03:45:14.763Z,11.68
2018-11-27T03:47:43.451Z,9.10
2018-11-27T03:50:15.904Z,10.90
2018-11-27T03:52:44.513Z,10.35
2018-11-27T03:55:13.399Z,9.85
2018-11-27T03:57:42.238Z,9.33
2018-11-27T04:00:16.007Z,10.00
2018-11-27T04:02:45.104Z,9.90
2018-11-27T04:05:13.266Z,8.78
2018-11-27T04:07:42.114Z,7.75
2018-11-27T04:10:13.758Z,8.80
2018-11-27T04:12:43.527Z,9.23
2018-11-27T04:15:12.791Z,10.55
2018-11-27T04:17:42.776Z,11.45
2018-11-27T04:20:11.323Z,10.80
2018-11-27T04:22:39.983Z,11.35
2018-11-27T04:25:11.127Z,11.25
2018-11-27T04:27:40.118Z,11.08
2018-11-27T04:30:15.035Z,12.05
2018-11-27T04:32:47.713Z,9.50
2018-11-27T04:35:16.737Z,10.55
2018-11-27T04:37:46.030Z,14.53
2018-11-27T04:40:16.375Z,11.00
2018-11-27T04:42:45.071Z,11.38
2018-11-27T04:45:17.081Z,11.78
2018-11-27T04:47:45.073Z,11.18
2018-11-27T04:50:14.158Z,10.85
2018-11-27T04:52:42.633Z,14.85
2018-11-27T04:55:17.008Z,11.40
2018-11-27T04:57:46.191Z,12.63
2018-11-27T05:00:16.865Z,13.25
2018-11-27T05:02:45.986Z,10.50
2018-11-27T05:05:14.658Z,13.20
2018-11-27T05:07:43.534Z,12.73
2018-11-27T05:10:14.314Z,13.88
2018-11-27T05:12:42.855Z,11.43
